createdAt,value
2018-06-05T00:03:59.095Z,20.54
2018-06-05T00:09:02.073Z,20.61
2018-06-05T00:14:05.109Z,20.52
2018-06-05T00:19:08.086Z,20.56
2018-06-05T00:24:11.214Z,20.56
2018-06-05T00:29:14.230Z,20.48
2018-06-05T00:34:17.201Z,20.59
2018-06-05T00:39:20.182Z,20.37
2018-06-05T00:44:23.186Z,20.30
2018-06-05T00:49:26.186Z,20.32
2018-06-05T00:54:29.169Z,20.29
2018-06-05T00:59:32.530Z,20.19
2018-06-05T01:04:35.509Z,20.02
2018-06-05T01:09:38.505Z,19.80
2018-06-05T01:14:41.486Z,19.80
2018-06-05T01:19:44.477Z,19.71
2018-06-05T01:24:47.448Z,19.59
2018-06-05T01:29:50.433Z,19.81
2018-06-05T01:34:53.404Z,19.67
2018-06-05T01:39:56.384Z,19.70
2018-06-05T01:44:59.405Z,19.62
2018-06-05T01:50:02.385Z,19.59
2018-06-05T01:55:05.377Z,19.71
2018-06-05T02:00:08.367Z,19.67
2018-06-05T02:05:11.330Z,19.60
2018-06-05T02:10:14.293Z,19.59
2018-06-05T02:15:17.288Z,19.78
2018-06-05T02:20:20.261Z,19.68
2018-06-05T02:25:23.257Z,19.61
2018-06-05T02:30:26.267Z,19.71
2018-06-05T02:35:29.288Z,19.64
2018-06-05T02:40:32.298Z,19.76
2018-06-05T02:45:35.282Z,19.74
2018-06-05T02:50:38.265Z,19.72
2018-06-05T02:55:41.297Z,19.58
2018-06-05T03:00:44.325Z,19.68
2018-06-05T03:05:47.445Z,19.83
2018-06-05T03:10:50.773Z,19.75
2018-06-05T03:15:53.741Z,19.85
2018-06-05T03:20:56.873Z,19.68
2018-06-05T03:25:59.875Z,19.83
2018-06-05T03:31:03.009Z,19.65
2018-06-05T03:36:06.052Z,19.81
2018-06-05T03:41:09.073Z,19.94
2018-06-05T03:46:12.106Z,19.63
2018-06-05T03:51:15.068Z,19.75
2018-06-05T03:56:18.079Z,20.03
2018-06-05T04:01:21.061Z,19.93
2018-06-05T04:06:24.110Z,19.90
2018-06-05T04:11:27.101Z,20.03
2018-06-05T04:16:30.117Z,20.14
2018-06-05T04:21:33.106Z,20.09
2018-06-05T04:26:36.097Z,20.22
2018-06-05T04:31:39.100Z,20.18
2018-06-05T04:36:42.097Z,20.30
2018-06-05T04:41:45.086Z,20.23
2018-06-05T04:46:48.120Z,20.23
2018-06-05T04:51:51.101Z,20.34
2018-06-05T04:56:54.097Z,20.30
2018-06-05T05:01:57.092Z,20.29
2018-06-05T05:07:00.077Z,20.10
2018-06-05T05:12:03.077Z,20.05
2018-06-05T05:17:06.111Z,20.12
2018-06-05T05:22:09.109Z,20.24
2018-06-05T05:27:12.108Z,20.13
2018-06-05T05:32:15.142Z,20.21
2018-06-05T05:37:18.200Z,20.11
2018-06-05T05:42:21.200Z,20.08
2018-06-05T05:47:24.190Z,19.92
2018-06-05T05:52:27.239Z,19.71
2018-06-05T05:57:30.227Z,19.79
2018-06-05T06:02:33.242Z,19.98
2018-06-05T06:07:36.252Z,19.84
2018-06-05T06:12:39.266Z,19.83
2018-06-05T06:17:42.273Z,19.88
2018-06-05T06:22:45.262Z,19.82
2018-06-05T06:27:48.298Z,19.72
2018-06-05T06:32:51.269Z,19.75
2018-06-05T06:37:54.259Z,19.82
2018-06-05T06:42:57.237Z,19.65
2018-06-05T06:48:00.285Z,19.88
2018-06-05T06:53:03.309Z,19.67
2018-06-05T06:58:06.308Z,19.70
2018-06-05T07:03:09.277Z,19.80
2018-06-05T07:08:12.266Z,19.81
2018-06-05T07:13:15.245Z,19.85
2018-06-05T07:18:18.324Z,19.90
2018-06-05T07:23:21.278Z,19.91
2018-06-05T07:28:24.261Z,20.09
2018-06-05T07:33:27.269Z,20.05
2018-06-05T07:38:30.246Z,19.80
2018-06-05T07:43:33.261Z,19.73
2018-06-05T07:48:36.257Z,19.83
2018-06-05T07:53:39.242Z,20.09
2018-06-05T07:58:42.223Z,20.23
2018-06-05T08:03:45.200Z,20.38
2018-06-05T08:08:48.186Z,20.57
2018-06-05T08:13:51.145Z,20.27
2018-06-05T08:18:54.123Z,20.43
2018-06-05T08:23:57.088Z,20.30
2018-06-05T08:29:00.086Z,20.39
2018-06-05T08:34:03.106Z,20.44
2018-06-05T08:39:07.763Z,20.47
2018-06-05T08:44:10.754Z,20.14
2018-06-05T08:49:13.725Z,20.01
2018-06-05T08:54:16.776Z,20.49
2018-06-05T08:59:19.726Z,20.84
2018-06-05T09:04:22.718Z,20.72
2018-06-05T09:09:25.698Z,20.70
2018-06-05T09:14:28.669Z,20.82
2018-06-05T09:19:31.653Z,20.96
2018-06-05T09:24:34.658Z,21.29
2018-06-05T09:29:37.641Z,21.50
2018-06-05T09:34:40.609Z,21.30
2018-06-05T09:39:43.649Z,21.64
2018-06-05T09:44:46.616Z,21.92
2018-06-05T09:49:49.609Z,22.04
2018-06-05T09:54:52.590Z,22.21
2018-06-05T09:59:55.588Z,22.33
2018-06-05T10:04:58.605Z,22.30
2018-06-05T10:10:01.587Z,22.57
2018-06-05T10:15:04.629Z,22.68
2018-06-05T10:20:07.601Z,22.62
2018-06-05T10:25:10.581Z,22.96
2018-06-05T10:30:13.553Z,23.22
2018-06-05T10:35:16.529Z,23.17
2018-06-05T10:40:19.510Z,22.88
2018-06-05T10:45:22.497Z,23.04
2018-06-05T10:50:25.510Z,23.24
2018-06-05T10:55:28.497Z,23.46
2018-06-05T11:00:31.638Z,23.70
2018-06-05T11:05:34.510Z,23.96
2018-06-05T11:10:37.513Z,24.20
2018-06-05T11:15:40.499Z,24.47
2018-06-05T11:20:43.507Z,24.73
2018-06-05T11:25:46.514Z,24.67
2018-06-05T11:30:49.514Z,25.14
2018-06-05T11:35:52.493Z,25.82
2018-06-05T11:40:55.501Z,26.54
2018-06-05T11:45:58.513Z,26.70
2018-06-05T11:51:01.517Z,26.05
2018-06-05T11:56:04.739Z,25.56
2018-06-05T12:01:07.854Z,25.98
2018-06-05T12:06:10.870Z,25.78
2018-06-05T12:11:13.925Z,26.02
2018-06-05T12:16:16.934Z,26.26
2018-06-05T12:21:19.925Z,26.35
2018-06-05T12:26:22.951Z,25.28
2018-06-05T12:31:25.970Z,24.01
2018-06-05T12:36:28.946Z,24.34
2018-06-05T12:41:31.950Z,24.90
2018-06-05T12:46:34.933Z,25.06
2018-06-05T12:51:37.980Z,25.37
2018-06-05T12:56:40.990Z,25.55
2018-06-05T13:01:44.051Z,25.45
2018-06-05T13:06:47.053Z,25.30
2018-06-05T13:11:50.064Z,25.07
2018-06-05T13:16:53.050Z,24.95
2018-06-05T13:21:56.013Z,25.19
2018-06-05T13:27:04.685Z,25.61
2018-06-05T13:32:07.686Z,25.94
2018-06-05T13:37:10.669Z,26.00
2018-06-05T13:42:13.637Z,25.33
2018-06-05T13:47:16.634Z,25.49
2018-06-05T13:52:19.640Z,26.06
2018-06-05T13:57:22.645Z,26.68
2018-06-05T14:02:25.621Z,27.00
2018-06-05T14:07:28.617Z,26.54
2018-06-05T14:12:31.635Z,26.78
2018-06-05T14:17:34.653Z,26.72
2018-06-05T14:22:37.701Z,27.17
2018-06-05T14:27:40.715Z,27.22
2018-06-05T14:32:43.874Z,27.52
2018-06-05T14:37:46.862Z,28.05
2018-06-05T14:42:49.858Z,27.94
2018-06-05T14:47:53.689Z,28.26
2018-06-05T14:52:56.705Z,28.84
2018-06-05T14:57:59.762Z,28.93
2018-06-05T15:03:02.808Z,28.96
2018-06-05T15:08:06.323Z,29.11
2018-06-05T15:13:09.503Z,29.50
2018-06-05T15:18:13.165Z,29.81
2018-06-05T15:23:16.282Z,29.46
2018-06-05T15:28:19.447Z,29.05
2018-06-05T15:33:22.473Z,29.30
2018-06-05T15:38:25.546Z,29.54
2018-06-05T15:43:28.576Z,29.91
2018-06-05T15:48:31.638Z,30.13
2018-06-05T15:53:34.791Z,29.71
2018-06-05T15:58:37.858Z,29.70
2018-06-05T16:03:40.971Z,29.52
2018-06-05T16:08:44.086Z,29.73
2018-06-05T16:13:47.179Z,29.93
2018-06-05T16:18:50.230Z,29.98
2018-06-05T16:23:53.315Z,29.69
2018-06-05T16:28:58.389Z,29.95
2018-06-05T16:34:01.527Z,30.31
2018-06-05T16:39:07.756Z,30.48
2018-06-05T16:44:10.809Z,30.66
2018-06-05T16:49:13.844Z,30.54
2018-06-05T16:54:16.950Z,30.33
2018-06-05T16:59:20.042Z,29.94
2018-06-05T17:04:23.170Z,29.95
2018-06-05T17:09:26.180Z,29.85
2018-06-05T17:14:29.257Z,29.59
2018-06-05T17:19:32.407Z,29.33
2018-06-05T17:24:35.554Z,29.18
2018-06-05T17:29:38.567Z,28.99
2018-06-05T17:34:41.591Z,28.84
2018-06-05T17:39:44.647Z,28.62
2018-06-05T17:44:47.666Z,28.50
2018-06-05T17:49:50.682Z,28.35
2018-06-05T17:54:53.677Z,28.17
2018-06-05T17:59:56.685Z,27.80
2018-06-05T18:04:59.702Z,27.55
2018-06-05T18:10:02.783Z,27.42
2018-06-05T18:15:05.994Z,27.38
2018-06-05T18:20:09.020Z,27.18
2018-06-05T18:25:12.018Z,26.93
2018-06-05T18:30:15.104Z,26.85
2018-06-05T18:35:18.173Z,26.89
2018-06-05T18:40:21.517Z,26.75
2018-06-05T18:45:24.560Z,26.64
2018-06-05T18:50:27.597Z,26.55
2018-06-05T18:55:30.646Z,26.42
2018-06-05T19:00:33.787Z,26.21
2018-06-05T19:05:36.862Z,26.06
2018-06-05T19:10:39.883Z,25.92
2018-06-05T19:15:42.963Z,25.73
2018-06-05T19:20:46.012Z,25.56
2018-06-05T19:25:49.065Z,25.36
2018-06-05T19:30:52.081Z,25.10
2018-06-05T19:35:55.253Z,24.86
2018-06-05T19:40:58.289Z,24.72
2018-06-05T19:46:01.342Z,24.61
2018-06-05T19:51:04.471Z,24.41
2018-06-05T19:56:07.945Z,24.23
2018-06-05T20:01:10.990Z,24.11
2018-06-05T20:06:14.106Z,23.88
2018-06-05T20:11:17.613Z,23.74
2018-06-05T20:16:21.365Z,23.68
2018-06-05T20:21:24.393Z,23.55
2018-06-05T20:26:27.423Z,23.33
2018-06-05T20:31:30.442Z,23.19
2018-06-05T20:36:33.467Z,23.08
2018-06-05T20:41:36.477Z,22.74
2018-06-05T20:46:39.480Z,22.84
2018-06-05T20:51:42.511Z,22.85
2018-06-05T20:56:45.564Z,22.77
2018-06-05T21:01:48.561Z,22.78
2018-06-05T21:06:51.588Z,22.52
2018-06-05T21:11:54.609Z,22.43
2018-06-05T21:16:57.606Z,22.41
2018-06-05T21:22:00.637Z,22.37
2018-06-05T21:27:03.674Z,22.32
2018-06-05T21:32:06.677Z,22.20
2018-06-05T21:37:09.706Z,22.20
2018-06-05T21:42:12.706Z,22.24
2018-06-05T21:47:15.721Z,22.18
2018-06-05T21:52:18.750Z,22.09
2018-06-05T21:57:21.756Z,21.92
2018-06-05T22:02:24.782Z,21.75
2018-06-05T22:07:27.837Z,21.65
2018-06-05T22:12:30.865Z,21.67
2018-06-05T22:17:33.892Z,21.45
2018-06-05T22:22:36.902Z,21.19
2018-06-05T22:27:39.903Z,21.15
2018-06-05T22:32:42.918Z,21.05
2018-06-05T22:37:45.981Z,21.27
2018-06-05T22:42:48.978Z,21.22
2018-06-05T22:47:52.022Z,21.13
2018-06-05T22:52:55.030Z,21.00
2018-06-05T22:57:58.043Z,20.86
2018-06-05T23:03:01.122Z,20.76
2018-06-05T23:08:04.358Z,20.71
2018-06-05T23:13:07.398Z,20.62
2018-06-05T23:18:11.438Z,20.50
2018-06-05T23:23:14.468Z,20.35
2018-06-05T23:28:17.509Z,20.14
2018-06-05T23:33:20.521Z,20.19
2018-06-05T23:38:23.542Z,20.11
2018-06-05T23:43:26.590Z,19.97
2018-06-05T23:48:29.606Z,19.96
2018-06-05T23:53:32.614Z,19.93
2018-06-05T23:58:35.669Z,19.89
